sensor_id;sensor_type;location;lat;lon;timestamp;temperature;humidity
17415;DHT22;8825;48.086;16.426;2022-10-16T00:01:40;14.70;79.20
17415;DHT22;8825;48.086;16.426;2022-10-16T00:04:09;14.70;79.20
17415;DHT22;8825;48.086;16.426;2022-10-16T00:06:36;14.60;79.10
17415;DHT22;8825;48.086;16.426;2022-10-16T00:09:05;14.70;79.20
17415;DHT22;8825;48.086;16.426;2022-10-16T00:11:34;14.70;79.10
17415;DHT22;8825;48.086;16.426;2022-10-16T00:14:08;14.60;79.00
17415;DHT22;8825;48.086;16.426;2022-10-16T00:16:37;14.60;78.90
17415;DHT22;8825;48.086;16.426;2022-10-16T00:19:05;14.50;78.60
17415;DHT22;8825;48.086;16.426;2022-10-16T00:21:33;14.40;78.30
17415;DHT22;8825;48.086;16.426;2022-10-16T00:26:50;14.30;77.90
17415;DHT22;8825;48.086;16.426;2022-10-16T00:29:17;14.20;77.70
17415;DHT22;8825;48.086;16.426;2022-10-16T00:32:04;14.20;77.60
17415;DHT22;8825;48.086;16.426;2022-10-16T00:34:32;14.20;77.30
17415;DHT22;8825;48.086;16.426;2022-10-16T00:36:59;14.10;77.60
17415;DHT22;8825;48.086;16.426;2022-10-16T00:39:27;14.00;77.50
17415;DHT22;8825;48.086;16.426;2022-10-16T00:41:54;14.00;77.60
17415;DHT22;8825;48.086;16.426;2022-10-16T00:44:53;14.00;77.70
17415;DHT22;8825;48.086;16.426;2022-10-16T00:50:11;13.90;77.80
17415;DHT22;8825;48.086;16.426;2022-10-16T00:52:41;13.80;77.90
17415;DHT22;8825;48.086;16.426;2022-10-16T00:55:09;13.80;78.00
17415;DHT22;8825;48.086;16.426;2022-10-16T00:57:38;13.80;78.10
17415;DHT22;8825;48.086;16.426;2022-10-16T01:03:24;13.80;78.10
17415;DHT22;8825;48.086;16.426;2022-10-16T01:06:23;13.80;77.90
17415;DHT22;8825;48.086;16.426;2022-10-16T01:09:17;13.80;78.40
17415;DHT22;8825;48.086;16.426;2022-10-16T01:14:53;13.80;78.60
17415;DHT22;8825;48.086;16.426;2022-10-16T01:17:26;13.70;78.70
17415;DHT22;8825;48.086;16.426;2022-10-16T01:20:04;13.80;78.80
17415;DHT22;8825;48.086;16.426;2022-10-16T01:22:37;13.80;79.00
17415;DHT22;8825;48.086;16.426;2022-10-16T01:25:05;13.80;78.90
17415;DHT22;8825;48.086;16.426;2022-10-16T01:27:34;13.80;79.80
17415;DHT22;8825;48.086;16.426;2022-10-16T01:30:16;13.80;79.00
17415;DHT22;8825;48.086;16.426;2022-10-16T01:32:49;13.80;79.00
17415;DHT22;8825;48.086;16.426;2022-10-16T01:35:36;13.80;79.00
17415;DHT22;8825;48.086;16.426;2022-10-16T01:38:14;13.70;78.90
17415;DHT22;8825;48.086;16.426;2022-10-16T01:40:44;13.70;79.00
17415;DHT22;8825;48.086;16.426;2022-10-16T01:43:57;13.70;78.80
17415;DHT22;8825;48.086;16.426;2022-10-16T01:45:46;13.70;78.80
17415;DHT22;8825;48.086;16.426;2022-10-16T01:48:19;13.70;78.80
17415;DHT22;8825;48.086;16.426;2022-10-16T01:51:01;13.70;78.70
17415;DHT22;8825;48.086;16.426;2022-10-16T01:53:29;13.60;78.60
17415;DHT22;8825;48.086;16.426;2022-10-16T01:55:58;13.60;78.50
17415;DHT22;8825;48.086;16.426;2022-10-16T01:58:27;13.60;78.50
17415;DHT22;8825;48.086;16.426;2022-10-16T02:00:57;13.60;78.60
17415;DHT22;8825;48.086;16.426;2022-10-16T02:03:25;13.50;78.60
17415;DHT22;8825;48.086;16.426;2022-10-16T02:05:57;13.50;78.70
17415;DHT22;8825;48.086;16.426;2022-10-16T02:08:27;13.60;78.80
17415;DHT22;8825;48.086;16.426;2022-10-16T02:10:57;13.50;78.60
17415;DHT22;8825;48.086;16.426;2022-10-16T02:13:33;13.50;78.50
17415;DHT22;8825;48.086;16.426;2022-10-16T02:16:02;13.40;78.20
17415;DHT22;8825;48.086;16.426;2022-10-16T02:18:30;13.40;78.30
17415;DHT22;8825;48.086;16.426;2022-10-16T02:24:09;13.30;78.20
17415;DHT22;8825;48.086;16.426;2022-10-16T02:26:57;13.30;78.40
17415;DHT22;8825;48.086;16.426;2022-10-16T02:29:26;13.20;78.30
17415;DHT22;8825;48.086;16.426;2022-10-16T02:31:59;13.20;78.40
17415;DHT22;8825;48.086;16.426;2022-10-16T02:34:28;13.20;78.60
17415;DHT22;8825;48.086;16.426;2022-10-16T02:36:58;13.20;78.60
17415;DHT22;8825;48.086;16.426;2022-10-16T02:39:28;13.20;78.60
17415;DHT22;8825;48.086;16.426;2022-10-16T02:41:56;13.10;78.50
17415;DHT22;8825;48.086;16.426;2022-10-16T02:44:23;13.10;78.60
17415;DHT22;8825;48.086;16.426;2022-10-16T02:46:51;13.00;78.70
17415;DHT22;8825;48.086;16.426;2022-10-16T02:49:18;13.00;78.80
17415;DHT22;8825;48.086;16.426;2022-10-16T02:51:46;12.90;78.70
17415;DHT22;8825;48.086;16.426;2022-10-16T02:54:13;12.90;78.90
17415;DHT22;8825;48.086;16.426;2022-10-16T02:56:41;12.90;78.90
17415;DHT22;8825;48.086;16.426;2022-10-16T02:59:08;12.90;79.00
17415;DHT22;8825;48.086;16.426;2022-10-16T03:01:36;13.00;80.00
17415;DHT22;8825;48.086;16.426;2022-10-16T03:04:03;13.00;79.20
17415;DHT22;8825;48.086;16.426;2022-10-16T03:06:31;13.00;79.20
17415;DHT22;8825;48.086;16.426;2022-10-16T03:08:59;13.00;79.20
17415;DHT22;8825;48.086;16.426;2022-10-16T03:11:26;13.00;80.00
17415;DHT22;8825;48.086;16.426;2022-10-16T03:13:54;13.00;79.30
17415;DHT22;8825;48.086;16.426;2022-10-16T03:16:22;12.90;79.20
17415;DHT22;8825;48.086;16.426;2022-10-16T03:18:49;12.90;79.30
17415;DHT22;8825;48.086;16.426;2022-10-16T03:21:17;12.90;79.40
17415;DHT22;8825;48.086;16.426;2022-10-16T03:23:45;12.90;79.40
17415;DHT22;8825;48.086;16.426;2022-10-16T03:26:13;13.00;79.50
17415;DHT22;8825;48.086;16.426;2022-10-16T03:28:40;13.00;79.70
17415;DHT22;8825;48.086;16.426;2022-10-16T03:31:08;13.00;79.60
17415;DHT22;8825;48.086;16.426;2022-10-16T03:33:35;13.00;79.50
17415;DHT22;8825;48.086;16.426;2022-10-16T03:36:03;13.10;79.60
17415;DHT22;8825;48.086;16.426;2022-10-16T03:38:30;13.10;79.60
17415;DHT22;8825;48.086;16.426;2022-10-16T03:40:58;13.10;79.60
17415;DHT22;8825;48.086;16.426;2022-10-16T03:43:25;13.00;79.60
17415;DHT22;8825;48.086;16.426;2022-10-16T03:45:53;13.10;79.60
17415;DHT22;8825;48.086;16.426;2022-10-16T03:48:21;13.10;79.60
17415;DHT22;8825;48.086;16.426;2022-10-16T03:50:48;13.10;79.50
17415;DHT22;8825;48.086;16.426;2022-10-16T03:53:17;13.10;79.50
17415;DHT22;8825;48.086;16.426;2022-10-16T03:55:44;13.10;79.60
17415;DHT22;8825;48.086;16.426;2022-10-16T03:58:12;13.10;79.10
17415;DHT22;8825;48.086;16.426;2022-10-16T04:00:46;13.10;79.40
17415;DHT22;8825;48.086;16.426;2022-10-16T04:03:11;13.10;79.40
17415;DHT22;8825;48.086;16.426;2022-10-16T04:05:38;13.00;79.30
17415;DHT22;8825;48.086;16.426;2022-10-16T04:08:09;13.00;79.30
17415;DHT22;8825;48.086;16.426;2022-10-16T04:10:37;13.00;79.30
17415;DHT22;8825;48.086;16.426;2022-10-16T04:13:04;13.10;79.30
17415;DHT22;8825;48.086;16.426;2022-10-16T04:15:32;13.10;79.40
17415;DHT22;8825;48.086;16.426;2022-10-16T04:17:59;13.00;79.20
17415;DHT22;8825;48.086;16.426;2022-10-16T04:20:27;13.00;78.80
17415;DHT22;8825;48.086;16.426;2022-10-16T04:22:54;13.00;78.80
17415;DHT22;8825;48.086;16.426;2022-10-16T04:25:22;13.00;78.70
17415;DHT22;8825;48.086;16.426;2022-10-16T04:27:49;12.90;78.60
17415;DHT22;8825;48.086;16.426;2022-10-16T04:30:17;12.90;78.60
17415;DHT22;8825;48.086;16.426;2022-10-16T04:32:49;12.90;78.60
17415;DHT22;8825;48.086;16.426;2022-10-16T04:35:18;12.90;78.50
17415;DHT22;8825;48.086;16.426;2022-10-16T04:37:46;12.90;78.60
17415;DHT22;8825;48.086;16.426;2022-10-16T04:40:14;12.90;78.70
17415;DHT22;8825;48.086;16.426;2022-10-16T04:42:42;12.90;78.70
17415;DHT22;8825;48.086;16.426;2022-10-16T04:45:10;12.90;78.70
17415;DHT22;8825;48.086;16.426;2022-10-16T04:47:37;12.90;79.30
17415;DHT22;8825;48.086;16.426;2022-10-16T04:50:05;12.90;78.40
17415;DHT22;8825;48.086;16.426;2022-10-16T04:52:33;12.90;78.60
17415;DHT22;8825;48.086;16.426;2022-10-16T04:55:01;12.90;78.70
17415;DHT22;8825;48.086;16.426;2022-10-16T04:57:30;12.90;78.80
17415;DHT22;8825;48.086;16.426;2022-10-16T04:59:57;12.90;78.80
17415;DHT22;8825;48.086;16.426;2022-10-16T05:02:25;12.90;79.20
17415;DHT22;8825;48.086;16.426;2022-10-16T05:04:52;12.90;78.80
17415;DHT22;8825;48.086;16.426;2022-10-16T05:07:20;13.00;79.00
17415;DHT22;8825;48.086;16.426;2022-10-16T05:09:48;13.00;79.10
17415;DHT22;8825;48.086;16.426;2022-10-16T05:12:15;13.00;79.20
17415;DHT22;8825;48.086;16.426;2022-10-16T05:14:43;13.00;79.20
17415;DHT22;8825;48.086;16.426;2022-10-16T05:17:10;13.00;79.30
17415;DHT22;8825;48.086;16.426;2022-10-16T05:19:38;13.00;79.30
17415;DHT22;8825;48.086;16.426;2022-10-16T05:22:05;13.10;79.40
17415;DHT22;8825;48.086;16.426;2022-10-16T05:24:33;13.10;79.40
17415;DHT22;8825;48.086;16.426;2022-10-16T05:27:01;13.10;79.40
17415;DHT22;8825;48.086;16.426;2022-10-16T05:29:28;13.20;79.50
17415;DHT22;8825;48.086;16.426;2022-10-16T05:31:57;13.20;79.60
17415;DHT22;8825;48.086;16.426;2022-10-16T05:34:24;13.20;79.50
17415;DHT22;8825;48.086;16.426;2022-10-16T05:37:11;13.30;79.60
17415;DHT22;8825;48.086;16.426;2022-10-16T05:39:39;13.30;79.40
17415;DHT22;8825;48.086;16.426;2022-10-16T05:42:07;13.30;79.80
17415;DHT22;8825;48.086;16.426;2022-10-16T05:44:34;13.40;79.90
17415;DHT22;8825;48.086;16.426;2022-10-16T05:47:02;13.40;79.80
17415;DHT22;8825;48.086;16.426;2022-10-16T05:49:29;13.40;79.70
17415;DHT22;8825;48.086;16.426;2022-10-16T05:51:57;13.50;79.80
17415;DHT22;8825;48.086;16.426;2022-10-16T05:54:24;13.50;79.80
17415;DHT22;8825;48.086;16.426;2022-10-16T05:56:52;13.50;79.80
17415;DHT22;8825;48.086;16.426;2022-10-16T05:59:19;13.60;80.00
17415;DHT22;8825;48.086;16.426;2022-10-16T06:01:47;13.60;79.90
17415;DHT22;8825;48.086;16.426;2022-10-16T06:04:14;13.70;79.90
17415;DHT22;8825;48.086;16.426;2022-10-16T06:07:01;13.80;80.10
17415;DHT22;8825;48.086;16.426;2022-10-16T06:09:28;13.70;79.80
17415;DHT22;8825;48.086;16.426;2022-10-16T06:11:56;13.70;80.10
17415;DHT22;8825;48.086;16.426;2022-10-16T06:14:24;13.80;80.30
17415;DHT22;8825;48.086;16.426;2022-10-16T06:16:51;13.90;80.40
17415;DHT22;8825;48.086;16.426;2022-10-16T06:19:19;13.90;80.50
17415;DHT22;8825;48.086;16.426;2022-10-16T06:21:46;14.00;80.50
17415;DHT22;8825;48.086;16.426;2022-10-16T06:24:14;14.00;80.60
17415;DHT22;8825;48.086;16.426;2022-10-16T06:26:42;14.00;80.60
17415;DHT22;8825;48.086;16.426;2022-10-16T06:29:09;14.00;80.90
17415;DHT22;8825;48.086;16.426;2022-10-16T06:31:37;14.00;80.90
17415;DHT22;8825;48.086;16.426;2022-10-16T06:34:04;14.10;81.10
17415;DHT22;8825;48.086;16.426;2022-10-16T06:36:33;14.10;81.30
17415;DHT22;8825;48.086;16.426;2022-10-16T06:39:01;14.10;81.40
17415;DHT22;8825;48.086;16.426;2022-10-16T06:41:28;14.10;81.40
17415;DHT22;8825;48.086;16.426;2022-10-16T06:43:56;14.20;81.50
17415;DHT22;8825;48.086;16.426;2022-10-16T06:46:25;14.20;81.60
17415;DHT22;8825;48.086;16.426;2022-10-16T06:48:53;14.10;81.60
17415;DHT22;8825;48.086;16.426;2022-10-16T06:51:22;14.10;82.20
17415;DHT22;8825;48.086;16.426;2022-10-16T06:53:52;14.20;81.70
17415;DHT22;8825;48.086;16.426;2022-10-16T06:56:22;14.10;81.80
17415;DHT22;8825;48.086;16.426;2022-10-16T06:58:51;14.10;81.90
17415;DHT22;8825;48.086;16.426;2022-10-16T07:01:21;14.10;82.00
17415;DHT22;8825;48.086;16.426;2022-10-16T07:03:49;14.10;82.00
17415;DHT22;8825;48.086;16.426;2022-10-16T07:06:18;14.20;82.10
17415;DHT22;8825;48.086;16.426;2022-10-16T07:08:47;14.20;82.10
17415;DHT22;8825;48.086;16.426;2022-10-16T07:11:21;14.20;82.20
17415;DHT22;8825;48.086;16.426;2022-10-16T07:13:46;14.10;82.20
17415;DHT22;8825;48.086;16.426;2022-10-16T07:16:15;14.20;82.30
17415;DHT22;8825;48.086;16.426;2022-10-16T07:21:35;14.30;82.50
17415;DHT22;8825;48.086;16.426;2022-10-16T07:24:02;14.30;82.30
17415;DHT22;8825;48.086;16.426;2022-10-16T07:26:33;14.40;82.30
17415;DHT22;8825;48.086;16.426;2022-10-16T07:29:00;14.40;82.20
17415;DHT22;8825;48.086;16.426;2022-10-16T07:31:28;14.40;82.20
17415;DHT22;8825;48.086;16.426;2022-10-16T07:33:58;14.50;82.20
17415;DHT22;8825;48.086;16.426;2022-10-16T07:36:26;14.50;82.10
17415;DHT22;8825;48.086;16.426;2022-10-16T07:38:53;14.50;82.00
17415;DHT22;8825;48.086;16.426;2022-10-16T07:41:21;14.60;82.00
17415;DHT22;8825;48.086;16.426;2022-10-16T07:43:53;14.60;82.00
17415;DHT22;8825;48.086;16.426;2022-10-16T07:46:22;14.50;81.80
17415;DHT22;8825;48.086;16.426;2022-10-16T07:48:50;14.50;81.90
17415;DHT22;8825;48.086;16.426;2022-10-16T07:51:21;14.50;81.90
17415;DHT22;8825;48.086;16.426;2022-10-16T07:53:48;14.50;81.90
17415;DHT22;8825;48.086;16.426;2022-10-16T07:56:17;14.50;82.00
17415;DHT22;8825;48.086;16.426;2022-10-16T07:58:45;14.50;81.90
17415;DHT22;8825;48.086;16.426;2022-10-16T08:01:15;14.60;81.90
17415;DHT22;8825;48.086;16.426;2022-10-16T08:03:46;14.60;81.90
17415;DHT22;8825;48.086;16.426;2022-10-16T08:06:13;14.60;81.80
17415;DHT22;8825;48.086;16.426;2022-10-16T08:08:41;14.70;81.60
17415;DHT22;8825;48.086;16.426;2022-10-16T08:11:08;14.70;81.50
17415;DHT22;8825;48.086;16.426;2022-10-16T08:13:36;14.70;81.50
17415;DHT22;8825;48.086;16.426;2022-10-16T08:16:04;14.70;81.30
17415;DHT22;8825;48.086;16.426;2022-10-16T08:18:36;14.70;81.40
17415;DHT22;8825;48.086;16.426;2022-10-16T08:21:05;14.80;81.40
17415;DHT22;8825;48.086;16.426;2022-10-16T08:23:33;14.80;81.40
17415;DHT22;8825;48.086;16.426;2022-10-16T08:28:52;14.80;81.20
17415;DHT22;8825;48.086;16.426;2022-10-16T08:31:20;14.90;81.40
17415;DHT22;8825;48.086;16.426;2022-10-16T08:33:48;14.90;82.20
17415;DHT22;8825;48.086;16.426;2022-10-16T08:36:16;14.90;81.30
17415;DHT22;8825;48.086;16.426;2022-10-16T08:38:49;14.90;81.40
17415;DHT22;8825;48.086;16.426;2022-10-16T08:47:02;14.90;81.30
17415;DHT22;8825;48.086;16.426;2022-10-16T08:49:30;15.10;81.30
17415;DHT22;8825;48.086;16.426;2022-10-16T08:51:58;15.00;81.20
17415;DHT22;8825;48.086;16.426;2022-10-16T08:54:37;15.00;81.20
17415;DHT22;8825;48.086;16.426;2022-10-16T08:57:21;15.00;81.10
17415;DHT22;8825;48.086;16.426;2022-10-16T08:59:49;15.00;81.20
17415;DHT22;8825;48.086;16.426;2022-10-16T09:05:02;15.10;81.20
17415;DHT22;8825;48.086;16.426;2022-10-16T09:11:09;15.20;81.20
17415;DHT22;8825;48.086;16.426;2022-10-16T09:15:51;15.30;81.20
17415;DHT22;8825;48.086;16.426;2022-10-16T09:18:30;15.40;81.10
17415;DHT22;8825;48.086;16.426;2022-10-16T09:20:59;15.40;81.10
17415;DHT22;8825;48.086;16.426;2022-10-16T09:23:29;15.40;81.00
17415;DHT22;8825;48.086;16.426;2022-10-16T09:25:58;15.30;80.90
17415;DHT22;8825;48.086;16.426;2022-10-16T09:28:26;15.40;81.80
17415;DHT22;8825;48.086;16.426;2022-10-16T09:30:54;15.40;81.00
17415;DHT22;8825;48.086;16.426;2022-10-16T09:33:27;15.40;81.00
17415;DHT22;8825;48.086;16.426;2022-10-16T09:35:56;15.50;80.90
17415;DHT22;8825;48.086;16.426;2022-10-16T09:38:33;15.40;81.00
17415;DHT22;8825;48.086;16.426;2022-10-16T09:41:24;15.40;81.00
17415;DHT22;8825;48.086;16.426;2022-10-16T09:43:35;15.40;80.60
17415;DHT22;8825;48.086;16.426;2022-10-16T09:46:05;15.50;81.30
17415;DHT22;8825;48.086;16.426;2022-10-16T09:54:01;15.80;81.20
17415;DHT22;8825;48.086;16.426;2022-10-16T09:56:31;15.90;81.00
17415;DHT22;8825;48.086;16.426;2022-10-16T10:01:48;15.90;80.70
17415;DHT22;8825;48.086;16.426;2022-10-16T10:04:19;15.90;80.60
17415;DHT22;8825;48.086;16.426;2022-10-16T10:06:51;16.00;80.60
17415;DHT22;8825;48.086;16.426;2022-10-16T10:09:37;16.00;80.60
17415;DHT22;8825;48.086;16.426;2022-10-16T10:12:14;16.10;80.50
17415;DHT22;8825;48.086;16.426;2022-10-16T10:14:46;16.10;80.50
17415;DHT22;8825;48.086;16.426;2022-10-16T10:17:20;16.30;80.60
17415;DHT22;8825;48.086;16.426;2022-10-16T10:19:53;16.40;80.50
17415;DHT22;8825;48.086;16.426;2022-10-16T10:22:42;16.40;80.40
17415;DHT22;8825;48.086;16.426;2022-10-16T10:33:52;16.90;79.80
17415;DHT22;8825;48.086;16.426;2022-10-16T10:39:22;17.20;79.20
17415;DHT22;8825;48.086;16.426;2022-10-16T10:58:43;18.70;77.60
17415;DHT22;8825;48.086;16.426;2022-10-16T11:01:45;18.90;77.00
17415;DHT22;8825;48.086;16.426;2022-10-16T11:07:04;19.20;75.60
17415;DHT22;8825;48.086;16.426;2022-10-16T11:09:57;19.30;75.50
17415;DHT22;8825;48.086;16.426;2022-10-16T11:12:34;19.50;74.90
17415;DHT22;8825;48.086;16.426;2022-10-16T11:17:57;19.70;73.90
17415;DHT22;8825;48.086;16.426;2022-10-16T11:20:45;19.90;73.50
17415;DHT22;8825;48.086;16.426;2022-10-16T11:25:43;20.10;72.90
17415;DHT22;8825;48.086;16.426;2022-10-16T11:28:14;20.30;72.40
17415;DHT22;8825;48.086;16.426;2022-10-16T11:30:52;20.40;72.00
17415;DHT22;8825;48.086;16.426;2022-10-16T11:42:01;20.40;70.30
17415;DHT22;8825;48.086;16.426;2022-10-16T11:44:42;20.40;70.40
17415;DHT22;8825;48.086;16.426;2022-10-16T11:47:31;20.40;70.50
17415;DHT22;8825;48.086;16.426;2022-10-16T11:53:45;20.50;70.20
17415;DHT22;8825;48.086;16.426;2022-10-16T11:55:41;20.50;70.50
17415;DHT22;8825;48.086;16.426;2022-10-16T11:58:35;20.60;70.50
17415;DHT22;8825;48.086;16.426;2022-10-16T12:06:42;20.80;70.40
17415;DHT22;8825;48.086;16.426;2022-10-16T12:09:29;21.00;70.50
17415;DHT22;8825;48.086;16.426;2022-10-16T12:12:24;21.20;70.20
17415;DHT22;8825;48.086;16.426;2022-10-16T12:15:30;21.30;69.70
17415;DHT22;8825;48.086;16.426;2022-10-16T12:17:57;21.40;69.40
17415;DHT22;8825;48.086;16.426;2022-10-16T12:20:30;21.60;69.50
17415;DHT22;8825;48.086;16.426;2022-10-16T12:23:06;21.70;69.20
17415;DHT22;8825;48.086;16.426;2022-10-16T12:25:38;21.90;69.00
17415;DHT22;8825;48.086;16.426;2022-10-16T12:28:20;22.00;68.10
17415;DHT22;8825;48.086;16.426;2022-10-16T12:30:52;22.00;68.70
17415;DHT22;8825;48.086;16.426;2022-10-16T12:33:56;22.10;67.70
17415;DHT22;8825;48.086;16.426;2022-10-16T12:39:00;22.30;67.50
17415;DHT22;8825;48.086;16.426;2022-10-16T12:41:33;22.40;67.20
17415;DHT22;8825;48.086;16.426;2022-10-16T12:44:02;22.40;66.70
17415;DHT22;8825;48.086;16.426;2022-10-16T12:46:39;22.50;67.00
17415;DHT22;8825;48.086;16.426;2022-10-16T12:51:44;22.40;65.80
17415;DHT22;8825;48.086;16.426;2022-10-16T12:54:17;22.30;65.60
17415;DHT22;8825;48.086;16.426;2022-10-16T12:57:09;22.30;65.60
17415;DHT22;8825;48.086;16.426;2022-10-16T13:03:00;22.30;65.80
17415;DHT22;8825;48.086;16.426;2022-10-16T13:10:40;22.60;65.50
17415;DHT22;8825;48.086;16.426;2022-10-16T13:21:43;22.80;64.30
17415;DHT22;8825;48.086;16.426;2022-10-16T13:26:50;22.70;63.00
17415;DHT22;8825;48.086;16.426;2022-10-16T13:29:17;22.70;62.30
17415;DHT22;8825;48.086;16.426;2022-10-16T13:32:10;22.80;62.30
17415;DHT22;8825;48.086;16.426;2022-10-16T13:34:43;22.90;62.20
17415;DHT22;8825;48.086;16.426;2022-10-16T13:37:15;22.90;62.20
17415;DHT22;8825;48.086;16.426;2022-10-16T13:39:35;22.90;62.20
17415;DHT22;8825;48.086;16.426;2022-10-16T13:44:49;22.90;60.60
17415;DHT22;8825;48.086;16.426;2022-10-16T13:47:22;22.90;60.70
17415;DHT22;8825;48.086;16.426;2022-10-16T13:50:04;22.90;60.70
17415;DHT22;8825;48.086;16.426;2022-10-16T13:52:32;22.90;60.70
17415;DHT22;8825;48.086;16.426;2022-10-16T13:55:00;22.90;59.90
17415;DHT22;8825;48.086;16.426;2022-10-16T13:57:28;22.80;60.00
17415;DHT22;8825;48.086;16.426;2022-10-16T13:59:55;22.90;60.50
17415;DHT22;8825;48.086;16.426;2022-10-16T14:02:35;22.90;60.50
17415;DHT22;8825;48.086;16.426;2022-10-16T14:05:03;23.00;60.50
17415;DHT22;8825;48.086;16.426;2022-10-16T14:07:33;22.90;60.50
17415;DHT22;8825;48.086;16.426;2022-10-16T14:10:06;23.00;60.00
17415;DHT22;8825;48.086;16.426;2022-10-16T14:12:34;23.00;60.00
17415;DHT22;8825;48.086;16.426;2022-10-16T14:15:02;23.00;60.10
17415;DHT22;8825;48.086;16.426;2022-10-16T14:17:32;23.00;59.60
17415;DHT22;8825;48.086;16.426;2022-10-16T14:20:04;23.00;59.80
17415;DHT22;8825;48.086;16.426;2022-10-16T14:22:36;23.00;59.20
17415;DHT22;8825;48.086;16.426;2022-10-16T14:25:24;23.00;58.90
17415;DHT22;8825;48.086;16.426;2022-10-16T14:33:22;23.00;58.90
17415;DHT22;8825;48.086;16.426;2022-10-16T14:38:54;23.00;58.70
17415;DHT22;8825;48.086;16.426;2022-10-16T14:41:20;23.00;58.70
17415;DHT22;8825;48.086;16.426;2022-10-16T14:43:52;23.00;58.70
17415;DHT22;8825;48.086;16.426;2022-10-16T14:46:45;22.90;58.40
17415;DHT22;8825;48.086;16.426;2022-10-16T14:51:29;22.80;58.40
17415;DHT22;8825;48.086;16.426;2022-10-16T14:53:57;22.80;58.60
17415;DHT22;8825;48.086;16.426;2022-10-16T14:56:28;22.80;58.70
17415;DHT22;8825;48.086;16.426;2022-10-16T14:58:55;22.80;58.80
17415;DHT22;8825;48.086;16.426;2022-10-16T15:01:23;22.80;58.70
17415;DHT22;8825;48.086;16.426;2022-10-16T15:03:50;22.80;58.70
17415;DHT22;8825;48.086;16.426;2022-10-16T15:06:20;22.70;58.60
17415;DHT22;8825;48.086;16.426;2022-10-16T15:08:48;22.60;58.40
17415;DHT22;8825;48.086;16.426;2022-10-16T15:11:18;22.60;59.10
17415;DHT22;8825;48.086;16.426;2022-10-16T15:13:46;22.50;58.40
17415;DHT22;8825;48.086;16.426;2022-10-16T15:16:15;22.50;58.40
17415;DHT22;8825;48.086;16.426;2022-10-16T15:18:43;22.50;58.40
17415;DHT22;8825;48.086;16.426;2022-10-16T15:24:14;22.40;58.60
17415;DHT22;8825;48.086;16.426;2022-10-16T15:26:42;22.30;58.60
17415;DHT22;8825;48.086;16.426;2022-10-16T15:29:09;22.20;58.80
17415;DHT22;8825;48.086;16.426;2022-10-16T15:31:37;22.20;58.90
17415;DHT22;8825;48.086;16.426;2022-10-16T15:34:05;22.20;58.90
17415;DHT22;8825;48.086;16.426;2022-10-16T15:36:35;22.10;59.00
17415;DHT22;8825;48.086;16.426;2022-10-16T15:41:54;22.00;59.10
17415;DHT22;8825;48.086;16.426;2022-10-16T15:44:22;21.90;59.10
17415;DHT22;8825;48.086;16.426;2022-10-16T15:49:30;21.80;59.30
17415;DHT22;8825;48.086;16.426;2022-10-16T15:51:58;21.70;59.40
17415;DHT22;8825;48.086;16.426;2022-10-16T15:54:25;21.70;59.50
17415;DHT22;8825;48.086;16.426;2022-10-16T15:56:53;21.50;59.60
17415;DHT22;8825;48.086;16.426;2022-10-16T15:59:20;21.50;59.80
17415;DHT22;8825;48.086;16.426;2022-10-16T16:01:48;21.50;59.90
17415;DHT22;8825;48.086;16.426;2022-10-16T16:04:15;21.40;60.00
17415;DHT22;8825;48.086;16.426;2022-10-16T16:06:43;21.40;60.10
17415;DHT22;8825;48.086;16.426;2022-10-16T16:09:14;21.30;60.20
17415;DHT22;8825;48.086;16.426;2022-10-16T16:11:42;21.20;60.20
17415;DHT22;8825;48.086;16.426;2022-10-16T16:14:13;21.10;60.30
17415;DHT22;8825;48.086;16.426;2022-10-16T16:16:41;21.10;60.30
17415;DHT22;8825;48.086;16.426;2022-10-16T16:19:28;21.00;60.50
17415;DHT22;8825;48.086;16.426;2022-10-16T16:21:56;21.00;60.30
17415;DHT22;8825;48.086;16.426;2022-10-16T16:24:23;20.90;60.70
17415;DHT22;8825;48.086;16.426;2022-10-16T16:26:51;20.90;60.90
17415;DHT22;8825;48.086;16.426;2022-10-16T16:29:18;20.80;61.00
17415;DHT22;8825;48.086;16.426;2022-10-16T16:31:46;20.70;61.10
17415;DHT22;8825;48.086;16.426;2022-10-16T16:34:14;20.60;61.20
17415;DHT22;8825;48.086;16.426;2022-10-16T16:36:41;20.50;61.30
17415;DHT22;8825;48.086;16.426;2022-10-16T16:39:09;20.40;61.50
17415;DHT22;8825;48.086;16.426;2022-10-16T16:41:37;20.40;61.70
17415;DHT22;8825;48.086;16.426;2022-10-16T16:44:06;20.40;61.80
17415;DHT22;8825;48.086;16.426;2022-10-16T16:46:35;20.30;61.90
17415;DHT22;8825;48.086;16.426;2022-10-16T16:49:02;20.20;62.10
17415;DHT22;8825;48.086;16.426;2022-10-16T16:51:30;20.20;62.20
17415;DHT22;8825;48.086;16.426;2022-10-16T16:53:58;20.20;62.70
17415;DHT22;8825;48.086;16.426;2022-10-16T16:56:26;20.10;62.30
17415;DHT22;8825;48.086;16.426;2022-10-16T16:58:56;20.10;62.40
17415;DHT22;8825;48.086;16.426;2022-10-16T17:01:26;20.00;62.50
17415;DHT22;8825;48.086;16.426;2022-10-16T17:03:55;20.00;62.90
17415;DHT22;8825;48.086;16.426;2022-10-16T17:06:28;19.90;63.00
17415;DHT22;8825;48.086;16.426;2022-10-16T17:08:56;19.80;63.30
17415;DHT22;8825;48.086;16.426;2022-10-16T17:11:25;19.80;63.40
17415;DHT22;8825;48.086;16.426;2022-10-16T17:13:55;19.70;63.50
17415;DHT22;8825;48.086;16.426;2022-10-16T17:16:26;19.60;63.60
17415;DHT22;8825;48.086;16.426;2022-10-16T17:18:53;19.60;63.90
17415;DHT22;8825;48.086;16.426;2022-10-16T17:21:21;19.50;64.00
17415;DHT22;8825;48.086;16.426;2022-10-16T17:23:51;19.50;64.20
17415;DHT22;8825;48.086;16.426;2022-10-16T17:26:19;19.40;64.40
17415;DHT22;8825;48.086;16.426;2022-10-16T17:28:53;19.40;64.50
17415;DHT22;8825;48.086;16.426;2022-10-16T17:31:19;19.30;64.70
17415;DHT22;8825;48.086;16.426;2022-10-16T17:33:47;19.30;64.90
17415;DHT22;8825;48.086;16.426;2022-10-16T17:36:15;19.30;65.30
17415;DHT22;8825;48.086;16.426;2022-10-16T17:38:43;19.30;65.30
17415;DHT22;8825;48.086;16.426;2022-10-16T17:41:16;19.30;65.50
17415;DHT22;8825;48.086;16.426;2022-10-16T17:43:45;19.30;65.50
17415;DHT22;8825;48.086;16.426;2022-10-16T17:46:14;19.30;65.60
17415;DHT22;8825;48.086;16.426;2022-10-16T17:48:44;19.30;65.70
17415;DHT22;8825;48.086;16.426;2022-10-16T17:51:13;19.30;65.80
17415;DHT22;8825;48.086;16.426;2022-10-16T17:53:41;19.30;66.00
17415;DHT22;8825;48.086;16.426;2022-10-16T17:56:11;19.20;66.00
17415;DHT22;8825;48.086;16.426;2022-10-16T17:58:40;19.20;66.10
17415;DHT22;8825;48.086;16.426;2022-10-16T18:01:17;19.20;66.10
17415;DHT22;8825;48.086;16.426;2022-10-16T18:03:55;19.20;66.10
17415;DHT22;8825;48.086;16.426;2022-10-16T18:06:19;19.20;66.10
17415;DHT22;8825;48.086;16.426;2022-10-16T18:08:46;19.20;66.00
17415;DHT22;8825;48.086;16.426;2022-10-16T18:11:14;19.20;66.10
17415;DHT22;8825;48.086;16.426;2022-10-16T18:13:41;19.20;66.00
17415;DHT22;8825;48.086;16.426;2022-10-16T18:16:11;19.20;66.10